Time;durP1;ratioP1;P1;durP2;ratioP2;P2;SDS_P1;SDS_P2;PMS_P1;PMS_P2;Temp;Humidity;BMP_temperature;BMP_pressure;BME280_temperature;BME280_humidity;BME280_pressure;Samples;Min_cycle;Max_cycle;Signal;HPM_P1;HPM_P2
2021/04/28 00:01:38;;;;;;;8.88;5.05;;;;;;;7.92;60.87;100110.28;5051017;28;20039;-73
2021/04/28 00:04:05;;;;;;;13.82;5.38;;;;;;;7.86;61.27;100100.84;5065759;28;20269;-73
2021/04/28 00:06:31;;;;;;;10.95;5.35;;;;;;;7.85;61.40;100098.25;5064152;28;20028;-71
2021/04/28 00:08:56;;;;;;;8.65;5.05;;;;;;;7.78;61.76;100102.31;5066206;28;20025;-70
2021/04/28 00:11:22;;;;;;;12.90;5.55;;;;;;;7.75;62.32;100094.47;5069092;28;20040;-72
2021/04/28 00:13:47;;;;;;;10.95;5.53;;;;;;;7.77;62.26;100090.75;5067521;28;20129;-73
2021/04/28 00:16:13;;;;;;;8.55;5.13;;;;;;;7.79;62.26;100094.16;5064114;28;20032;-73
2021/04/28 00:18:39;;;;;;;9.18;5.78;;;;;;;7.79;62.20;100094.16;5048321;28;20032;-73
2021/04/28 00:21:04;;;;;;;9.68;5.40;;;;;;;7.78;62.46;100080.94;5050948;28;20036;-73
2021/04/28 00:23:30;;;;;;;9.93;5.53;;;;;;;7.79;62.48;100087.97;5065405;28;20024;-70
2021/04/28 00:25:55;;;;;;;11.50;5.25;;;;;;;7.77;62.27;100085.41;5062689;28;20016;-72
2021/04/28 00:28:21;;;;;;;11.10;6.07;;;;;;;7.77;62.17;100084.56;5063429;28;20364;-72
2021/04/28 00:30:46;;;;;;;9.70;5.47;;;;;;;7.76;62.37;100088.16;5063832;28;20077;-73
2021/04/28 00:33:12;;;;;;;9.98;4.72;;;;;;;7.77;62.58;100082.75;5047873;28;20043;-72
2021/04/28 00:35:38;;;;;;;11.75;5.70;;;;;;;7.73;62.89;100084.72;5061253;28;20097;-71
2021/04/28 00:38:04;;;;;;;12.05;5.68;;;;;;;7.75;62.72;100075.75;5071432;28;20473;-71
2021/04/28 00:40:38;;;;;;;10.90;5.38;;;;;;;7.72;62.95;100077.66;5064161;28;20043;-73
2021/04/28 00:43:05;;;;;;;12.60;5.75;;;;;;;7.71;62.99;100075.13;5065774;28;20397;-72
2021/04/28 00:45:33;;;;;;;12.50;5.25;;;;;;;7.70;63.00;100076.06;5048394;28;20032;-72
2021/04/28 00:48:01;;;;;;;11.48;5.68;;;;;;;7.69;63.29;100071.66;5066200;28;20067;-72
2021/04/28 00:50:35;;;;;;;8.98;4.95;;;;;;;7.68;63.42;100073.47;5064386;28;20046;-71
2021/04/28 00:53:04;;;;;;;8.57;5.68;;;;;;;7.66;63.49;100064.69;5047548;28;20532;-72
2021/04/28 00:55:30;;;;;;;10.60;6.28;;;;;;;7.66;63.45;100061.16;5048479;28;20028;-72
2021/04/28 00:57:55;;;;;;;14.63;5.45;;;;;;;7.67;63.49;100062.88;5065862;28;20248;-72
2021/04/28 01:00:23;;;;;;;12.55;5.43;;;;;;;7.63;63.59;100059.56;5064094;28;20033;-71
2021/04/28 01:02:48;;;;;;;11.60;5.80;;;;;;;7.61;63.59;100052.59;5065425;28;20028;-72
2021/04/28 01:05:15;;;;;;;9.90;5.80;;;;;;;7.56;63.85;100063.56;5065337;28;20039;-73
2021/04/28 01:07:42;;;;;;;10.15;5.65;;;;;;;7.52;64.07;100053.19;5047303;28;20049;-70
2021/04/28 01:10:11;;;;;;;13.27;5.82;;;;;;;7.48;64.43;100046.28;5062871;28;20040;-73
2021/04/28 01:12:38;;;;;;;8.85;5.45;;;;;;;7.46;64.62;100050.88;5046754;28;20536;-71
2021/04/28 01:15:08;;;;;;;12.98;5.95;;;;;;;7.44;64.97;100056.31;5064142;28;20040;-72
2021/04/28 01:17:38;;;;;;;12.07;5.43;;;;;;;7.40;65.28;100052.13;5048724;28;20025;-72
2021/04/28 01:20:08;;;;;;;12.13;6.55;;;;;;;7.34;65.69;100046.31;5057869;28;20059;-72
2021/04/28 01:22:40;;;;;;;10.50;5.63;;;;;;;7.29;65.75;100039.41;5067462;28;20114;-72
2021/04/28 01:25:09;;;;;;;9.10;5.40;;;;;;;7.25;65.87;100045.91;5048330;28;20029;-72
2021/04/28 01:27:39;;;;;;;13.68;6.20;;;;;;;7.23;66.12;100042.47;5042565;28;20055;-72
2021/04/28 01:30:07;;;;;;;11.30;6.07;;;;;;;7.16;66.40;100037.63;5062810;28;20226;-71
2021/04/28 01:32:34;;;;;;;16.55;5.88;;;;;;;7.14;66.37;100034.19;5047720;28;20094;-72
2021/04/28 01:35:01;;;;;;;15.50;6.40;;;;;;;7.09;66.51;100029.13;5063380;28;20389;-71
2021/04/28 01:37:31;;;;;;;10.90;5.78;;;;;;;7.04;66.54;100033.00;5063406;28;20057;-73
2021/04/28 01:40:00;;;;;;;9.73;6.00;;;;;;;6.99;66.76;100030.63;5045797;28;20443;-71
2021/04/28 01:42:26;;;;;;;13.15;6.07;;;;;;;6.98;67.01;100031.56;5067114;28;20024;-73
2021/04/28 01:44:53;;;;;;;10.35;5.53;;;;;;;6.96;67.01;100033.50;5062794;28;20039;-72
2021/04/28 01:47:19;;;;;;;11.60;5.97;;;;;;;6.94;67.09;100029.19;5064246;28;20063;-70
2021/04/28 01:49:46;;;;;;;12.75;6.55;;;;;;;6.91;67.62;100024.91;5062765;28;20043;-73
2021/04/28 01:52:13;;;;;;;11.65;6.10;;;;;;;6.87;68.41;100023.34;5067906;28;20032;-72
2021/04/28 01:54:40;;;;;;;11.38;6.28;;;;;;;6.83;68.62;100027.16;5052116;28;20043;-72
2021/04/28 01:57:08;;;;;;;13.00;6.68;;;;;;;6.79;68.88;100026.47;5066525;28;20139;-73
2021/04/28 01:59:51;;;;;;;16.50;6.32;;;;;;;6.76;68.98;100023.16;5065016;28;20036;-72
2021/04/28 02:02:48;;;;;;;11.30;5.72;;;;;;;6.75;69.27;100018.75;5068662;28;20029;-72
2021/04/28 02:05:14;;;;;;;9.50;5.60;;;;;;;6.70;69.47;100018.19;5048234;28;20107;-72
2021/04/28 02:07:42;;;;;;;11.98;5.82;;;;;;;6.69;69.74;100027.13;5067987;28;20032;-73
2021/04/28 02:10:09;;;;;;;12.43;6.60;;;;;;;6.64;70.04;100023.88;5068528;28;20227;-72
2021/04/28 02:12:36;;;;;;;12.80;6.13;;;;;;;6.62;70.16;100023.09;5049332;28;20048;-72
2021/04/28 02:15:06;;;;;;;9.73;5.55;;;;;;;6.60;70.23;100030.34;5052133;28;20559;-71
2021/04/28 02:17:35;;;;;;;14.40;7.15;;;;;;;6.56;70.35;100028.78;5044590;28;20063;-72
2021/04/28 02:20:08;;;;;;;13.27;6.40;;;;;;;6.54;70.62;100030.72;5056211;28;20039;-72
2021/04/28 02:22:43;;;;;;;11.65;6.03;;;;;;;6.48;70.97;100024.75;5036406;28;20093;-71
2021/04/28 02:25:15;;;;;;;;;;;;;;;6.43;71.13;100025.97;5047839;28;20044;-70
2021/04/28 02:27:53;;;;;;;10.93;6.30;;;;;;;6.34;71.75;100024.72;5051678;28;19919;-71
2021/04/28 02:30:21;;;;;;;11.38;6.22;;;;;;;6.30;71.82;100022.31;5049622;28;20029;-72
2021/04/28 02:32:48;;;;;;;11.80;6.22;;;;;;;6.28;71.83;100019.75;5050644;28;20536;-72
2021/04/28 02:35:21;;;;;;;10.27;6.65;;;;;;;6.27;71.99;100011.84;5065500;28;20114;-73
2021/04/28 02:38:03;;;;;;;12.88;6.80;;;;;;;6.24;72.28;100012.88;5051312;28;20493;-72
2021/04/28 02:41:00;;;;;;;;;;;;;;;6.19;72.61;100004.28;5056459;28;20040;-72
2021/04/28 02:43:27;;;;;;;16.63;7.03;;;;;;;6.16;72.42;100007.13;5071578;28;19920;-72
2021/04/28 02:46:05;;;;;;;13.25;6.25;;;;;;;6.13;72.65;99996.66;5064234;28;20035;-72
2021/04/28 02:48:35;;;;;;;;;;;;;;;6.07;73.13;100002.31;5041999;28;20056;-71
2021/04/28 02:51:31;;;;;;;11.23;6.47;;;;;;;6.01;73.41;100000.00;5068706;28;20345;-72
2021/04/28 02:53:59;;;;;;;14.25;6.18;;;;;;;5.98;73.48;100011.72;5066910;28;20024;-70
2021/04/28 02:56:28;;;;;;;11.20;6.38;;;;;;;5.95;73.77;100000.34;5050909;28;20073;-71
2021/04/28 02:58:55;;;;;;;13.10;6.80;;;;;;;5.93;73.77;100002.25;5050092;28;20032;-72
2021/04/28 03:01:21;;;;;;;12.90;6.88;;;;;;;5.93;74.00;100007.56;5049046;28;20056;-72
2021/04/28 03:03:47;;;;;;;15.48;7.07;;;;;;;5.90;74.24;100003.28;5049466;28;20059;-71
2021/04/28 03:06:22;;;;;;;15.00;7.70;;;;;;;5.90;74.46;100000.63;5062192;28;20115;-72
2021/04/28 03:08:58;;;;;;;19.20;8.23;;;;;;;5.88;74.60;100004.31;5071642;28;20178;-72
2021/04/28 03:11:24;;;;;;;18.40;7.32;;;;;;;5.85;74.76;100005.34;5064668;28;20111;-72
2021/04/28 03:13:51;;;;;;;16.27;7.60;;;;;;;5.84;74.76;99997.41;5065701;28;20051;-72
2021/04/28 03:16:17;;;;;;;12.32;7.82;;;;;;;5.81;75.01;100000.25;5062889;28;20036;-72
2021/04/28 03:18:44;;;;;;;15.25;7.45;;;;;;;5.77;75.26;100002.22;5065660;28;20139;-72
2021/04/28 03:21:12;;;;;;;18.23;8.25;;;;;;;5.73;75.31;99999.84;5065028;28;20028;-72
2021/04/28 03:23:41;;;;;;;15.43;7.53;;;;;;;5.70;75.49;99996.38;5050245;28;20136;-73
2021/04/28 03:26:10;;;;;;;13.27;7.10;;;;;;;5.69;75.44;99993.81;5054326;28;20039;-70
2021/04/28 03:28:37;;;;;;;12.00;7.05;;;;;;;5.65;75.65;99990.47;5064396;28;20343;-72
2021/04/28 03:31:02;;;;;;;14.48;7.82;;;;;;;5.63;75.76;99995.00;5065737;28;20063;-72
2021/04/28 03:33:29;;;;;;;18.15;7.60;;;;;;;5.60;75.97;99995.19;5049433;28;20032;-72
2021/04/28 03:36:02;;;;;;;;;;;;;;;5.56;76.07;99987.44;5048095;28;20037;-72
2021/04/28 03:38:47;;;;;;;14.55;6.55;;;;;;;5.53;76.25;99982.28;5051832;28;19989;-72
2021/04/28 03:41:14;;;;;;;19.38;7.30;;;;;;;5.50;76.39;99987.78;5048341;28;20029;-72
2021/04/28 03:43:43;;;;;;;15.85;8.18;;;;;;;5.48;76.33;99993.19;5070695;28;20449;-72
2021/04/28 03:46:09;;;;;;;13.57;7.88;;;;;;;5.46;76.48;99989.75;5066063;28;20035;-72
2021/04/28 03:48:39;;;;;;;17.05;7.90;;;;;;;5.44;76.46;99982.78;5070513;23;20043;-80
2021/04/28 03:51:05;;;;;;;16.48;7.88;;;;;;;5.42;76.62;99984.69;5053542;28;20044;-80
2021/04/28 03:53:35;;;;;;;16.73;7.88;;;;;;;5.39;76.69;99988.38;5066384;28;20035;-80
2021/04/28 03:56:00;;;;;;;11.63;7.63;;;;;;;5.38;76.86;99983.13;5046402;28;20406;-80
2021/04/28 03:58:26;;;;;;;17.25;8.80;;;;;;;5.36;76.88;99993.88;5051319;28;20237;-81
2021/04/28 04:01:01;;;;;;;12.90;7.72;;;;;;;5.33;76.88;99990.50;5055823;28;20070;-79
2021/04/28 04:03:33;;;;;;;16.73;8.38;;;;;;;5.30;77.11;99991.56;5086175;23;20112;-70
2021/04/28 04:06:14;;;;;;;12.40;7.55;;;;;;;5.25;77.20;99991.78;5079169;28;20048;-69
2021/04/28 04:08:49;;;;;;;18.27;7.70;;;;;;;5.20;77.45;99985.00;5082077;28;20461;-70
2021/04/28 04:11:14;;;;;;;16.00;8.13;;;;;;;5.16;77.33;99986.09;5077260;28;20115;-70
2021/04/28 04:13:40;;;;;;;13.88;7.82;;;;;;;5.10;77.68;99989.97;5086082;28;20081;-69
2021/04/28 04:16:06;;;;;;;21.88;9.90;;;;;;;5.10;77.83;99989.09;5078782;28;20484;-70
2021/04/28 04:18:33;;;;;;;15.90;7.43;;;;;;;5.09;77.79;99982.06;5064434;28;20085;-69
2021/04/28 04:21:00;;;;;;;19.52;8.20;;;;;;;5.07;77.91;99983.94;5069960;28;20058;-69
2021/04/28 04:23:31;;;;;;;17.58;7.95;;;;;;;5.05;78.16;99984.03;5086843;28;20028;-68
2021/04/28 04:26:21;;;;;;;22.38;9.05;;;;;;;5.06;78.23;99990.22;5078898;28;20035;-69
2021/04/28 04:29:03;;;;;;;16.40;8.60;;;;;;;5.05;78.10;100000.00;5082750;28;20043;-69
2021/04/28 04:31:49;;;;;;;14.15;7.88;;;;;;;5.02;78.25;99992.16;5077352;28;20066;-69
2021/04/28 04:34:33;;;;;;;20.15;8.43;;;;;;;5.03;78.35;100001.00;5084224;28;20174;-68
2021/04/28 04:37:17;;;;;;;18.98;8.65;;;;;;;5.02;78.23;99997.47;5080827;28;20055;-69
2021/04/28 04:39:56;;;;;;;18.25;8.60;;;;;;;5.02;78.19;99997.47;5080310;28;20036;-69
2021/04/28 04:42:42;;;;;;;18.98;8.85;;;;;;;4.99;78.52;99996.78;5081129;28;20040;-69
2021/04/28 04:45:28;;;;;;;16.80;8.07;;;;;;;4.89;78.97;99991.94;5077798;28;20675;-69
2021/04/28 04:47:53;;;;;;;16.23;8.40;;;;;;;4.79;79.69;99985.41;5083034;28;20039;-69
2021/04/28 04:50:19;;;;;;;19.65;8.55;;;;;;;4.75;80.12;99986.47;5087591;28;20416;-69
2021/04/28 04:52:44;;;;;;;18.33;8.40;;;;;;;4.75;80.58;99988.31;5077316;28;20392;-69
2021/04/28 04:55:10;;;;;;;15.25;8.25;;;;;;;4.74;80.30;99992.75;5083991;28;20039;-69
2021/04/28 04:57:36;;;;;;;16.63;8.68;;;;;;;4.76;80.46;99990.88;5078438;28;20081;-69
2021/04/28 05:00:04;;;;;;;16.65;7.82;;;;;;;4.78;80.48;99983.69;5084939;28;20032;-69
2021/04/28 05:02:30;;;;;;;19.40;8.60;;;;;;;4.79;80.88;99985.41;5084962;28;21754;-70
2021/04/28 05:04:55;;;;;;;17.45;8.10;;;;;;;4.81;81.17;99990.66;5067944;28;20388;-69
2021/04/28 05:07:20;;;;;;;13.88;7.85;;;;;;;4.82;81.38;99990.53;5084546;28;20036;-69
2021/04/28 05:09:46;;;;;;;14.98;7.85;;;;;;;4.86;81.29;99992.13;5086551;28;20028;-69
2021/04/28 05:12:11;;;;;;;17.33;8.32;;;;;;;4.95;81.10;99997.88;5079914;28;20555;-69
2021/04/28 05:14:37;;;;;;;18.27;8.00;;;;;;;5.01;80.97;100005.53;5079804;28;20024;-69
2021/04/28 05:17:02;;;;;;;19.90;8.15;;;;;;;5.07;80.78;100003.41;5083045;28;20035;-70
2021/04/28 05:19:28;;;;;;;20.25;8.85;;;;;;;5.14;80.43;99999.47;5085245;28;20070;-70
2021/04/28 05:21:54;;;;;;;15.65;8.98;;;;;;;5.23;80.17;99995.47;5082058;28;20486;-69
2021/04/28 05:24:19;;;;;;;21.30;9.38;;;;;;;5.30;79.76;100002.19;5090857;28;20027;-69
2021/04/28 05:27:13;;;;;;;20.30;8.75;;;;;;;5.40;79.24;100003.41;5073044;28;20032;-70
2021/04/28 05:29:39;;;;;;;15.38;8.85;;;;;;;5.48;78.85;100005.66;5084411;28;20035;-69
2021/04/28 05:32:04;;;;;;;23.63;10.25;;;;;;;5.54;79.15;100006.19;5101325;28;20048;-70
2021/04/28 05:34:30;;;;;;;22.67;9.57;;;;;;;5.56;79.72;99998.94;5084099;28;20031;-69
2021/04/28 05:36:55;;;;;;;18.45;9.35;;;;;;;5.59;79.64;99995.28;5087139;28;20108;-70
2021/04/28 05:39:21;;;;;;;24.98;9.73;;;;;;;5.63;79.15;99988.81;5085950;28;20110;-70
2021/04/28 05:41:46;;;;;;;17.73;9.20;;;;;;;5.74;78.49;99996.22;5084286;28;20119;-69
2021/04/28 05:44:12;;;;;;;17.33;8.20;;;;;;;5.88;77.99;99996.31;5084435;28;20036;-69
2021/04/28 05:46:38;;;;;;;18.65;9.02;;;;;;;6.05;77.08;99990.88;5090125;28;20504;-70
2021/04/28 05:49:04;;;;;;;17.15;8.60;;;;;;;6.25;76.53;99995.06;5092222;28;20039;-69
2021/04/28 05:51:30;;;;;;;21.25;9.13;;;;;;;6.52;75.36;99989.94;5086686;28;20177;-70
2021/04/28 05:53:56;;;;;;;19.38;8.63;;;;;;;6.86;74.24;99987.81;5070212;28;20491;-70
2021/04/28 05:56:21;;;;;;;16.38;9.15;;;;;;;7.35;71.81;99983.94;5096653;28;20097;-70
2021/04/28 05:58:47;;;;;;;23.27;9.10;;;;;;;7.81;70.03;99987.22;5088284;28;20066;-70
2021/04/28 06:01:12;;;;;;;18.23;8.43;;;;;;;8.30;68.16;99992.88;5084906;28;20058;-69
2021/04/28 06:03:38;;;;;;;17.13;9.20;;;;;;;8.69;67.16;99984.88;5084743;28;20520;-70
2021/04/28 06:06:04;;;;;;;23.92;8.65;;;;;;;9.06;66.38;99987.72;5078932;28;20032;-70
2021/04/28 06:08:29;;;;;;;17.35;7.85;;;;;;;9.41;65.24;99988.75;5087340;28;20107;-69
2021/04/28 06:10:55;;;;;;;19.70;8.90;;;;;;;9.75;64.03;99988.03;5087861;28;20024;-70
2021/04/28 06:13:20;;;;;;;17.55;8.38;;;;;;;9.67;62.17;99995.78;5083841;28;20495;-70
2021/04/28 06:15:45;;;;;;;14.77;8.90;;;;;;;9.62;63.13;99981.88;5088149;28;20076;-69
2021/04/28 06:18:11;;;;;;;17.65;8.30;;;;;;;9.62;63.16;99991.72;5086885;28;20054;-70
2021/04/28 06:20:36;;;;;;;15.43;8.38;;;;;;;9.88;62.22;99993.34;5088300;28;20031;-70
2021/04/28 06:23:03;;;;;;;17.00;8.10;;;;;;;10.18;61.83;99987.63;5090808;28;20156;-70
2021/04/28 06:25:29;;;;;;;13.32;7.88;;;;;;;10.41;59.57;99986.75;5083288;28;20059;-70
2021/04/28 06:27:55;;;;;;;14.93;8.30;;;;;;;10.49;57.62;99994.22;5085428;28;20101;-70
2021/04/28 06:30:20;;;;;;;16.67;8.98;;;;;;;10.42;60.73;99988.47;5087756;28;20024;-70
2021/04/28 06:32:48;;;;;;;19.38;8.07;;;;;;;10.19;61.27;99983.94;5087763;28;20055;-69
2021/04/28 06:35:14;;;;;;;14.07;8.27;;;;;;;10.27;61.41;99992.28;5084667;28;20039;-70
2021/04/28 06:37:39;;;;;;;17.65;8.82;;;;;;;10.37;61.06;99979.88;5090079;28;20055;-70
2021/04/28 06:40:07;;;;;;;23.10;8.40;;;;;;;10.51;59.67;99976.16;5091000;28;20747;-70
2021/04/28 06:42:33;;;;;;;15.85;8.88;;;;;;;10.50;59.69;99972.63;5087077;28;20028;-70
2021/04/28 06:44:58;;;;;;;15.18;8.25;;;;;;;10.58;60.10;99974.72;5087268;28;20594;-70
2021/04/28 06:47:25;;;;;;;20.48;9.15;;;;;;;10.68;60.01;99973.03;5091763;28;20035;-70
2021/04/28 06:49:51;;;;;;;20.60;8.63;;;;;;;10.98;58.06;99980.59;5090490;28;20023;-70
2021/04/28 06:52:17;;;;;;;17.33;7.93;;;;;;;11.25;56.95;99973.03;5095660;28;20036;-70
2021/04/28 06:54:43;;;;;;;21.48;8.68;;;;;;;11.54;56.56;99977.94;5085778;28;20031;-69
2021/04/28 06:57:08;;;;;;;24.60;8.30;;;;;;;11.92;52.29;99977.53;5078670;28;20035;-70
2021/04/28 06:59:34;;;;;;;15.23;7.72;;;;;;;12.36;52.71;99974.75;5090733;28;20624;-71
2021/04/28 07:01:59;;;;;;;16.60;8.07;;;;;;;13.10;50.11;99969.34;5081629;28;20042;-70
2021/04/28 07:04:25;;;;;;;16.05;8.18;;;;;;;13.42;48.61;99978.19;5088423;28;20315;-70
2021/04/28 07:06:50;;;;;;;21.60;7.93;;;;;;;13.22;48.25;99973.69;5077957;28;20035;-70
2021/04/28 07:09:16;;;;;;;16.77;8.93;;;;;;;13.11;48.96;99977.28;5087927;28;20035;-69
2021/04/28 07:11:42;;;;;;;14.18;8.18;;;;;;;12.99;50.69;99975.66;5081695;28;20024;-71
2021/04/28 07:14:07;;;;;;;20.77;9.10;;;;;;;13.04;49.73;99983.34;5080987;28;20038;-70
2021/04/28 07:16:33;;;;;;;14.02;7.47;;;;;;;13.31;49.69;99983.69;5083987;28;20503;-70
2021/04/28 07:18:58;;;;;;;17.58;8.80;;;;;;;13.68;46.80;99982.16;5086115;28;20106;-70
2021/04/28 07:21:25;;;;;;;18.70;8.32;;;;;;;13.99;46.85;99982.09;5091171;28;20107;-70
2021/04/28 07:23:50;;;;;;;19.98;8.18;;;;;;;14.46;44.83;99986.75;5073530;28;20451;-71
2021/04/28 07:26:16;;;;;;;18.38;8.80;;;;;;;15.07;43.71;99981.00;5084581;28;20025;-71
2021/04/28 07:28:41;;;;;;;17.52;7.82;;;;;;;15.74;41.16;99988.09;5084590;28;20512;-71
2021/04/28 07:31:08;;;;;;;13.52;8.02;;;;;;;16.47;40.03;99989.81;5081713;28;20054;-71
2021/04/28 07:33:33;;;;;;;15.82;8.18;;;;;;;16.53;39.60;99989.19;5084939;28;20122;-71
2021/04/28 07:35:59;;;;;;;14.68;7.60;;;;;;;16.77;39.58;99988.59;5067221;28;20135;-71
2021/04/28 07:38:25;;;;;;;18.00;8.57;;;;;;;16.52;39.43;99992.91;5086396;28;20039;-71
2021/04/28 07:40:50;;;;;;;17.80;7.90;;;;;;;16.86;37.93;99984.94;5085147;28;20024;-71
2021/04/28 07:43:16;;;;;;;16.15;7.38;;;;;;;17.12;36.65;99984.13;5086004;28;20059;-71
2021/04/28 07:45:41;;;;;;;16.27;7.07;;;;;;;16.93;37.71;99980.59;5084453;28;20690;-71
2021/04/28 07:48:09;;;;;;;16.20;7.43;;;;;;;17.13;37.01;99981.25;5083439;28;20121;-71
2021/04/28 07:50:38;;;;;;;15.35;7.40;;;;;;;17.60;36.06;99987.19;5087080;28;20035;-71
2021/04/28 07:53:05;;;;;;;16.92;6.97;;;;;;;18.02;34.80;99978.22;5088236;28;20031;-71
2021/04/28 07:55:30;;;;;;;15.07;7.70;;;;;;;17.96;34.86;99981.59;5081871;28;20039;-71
2021/04/28 07:57:59;;;;;;;13.07;6.97;;;;;;;18.22;34.59;99966.03;5083976;28;20031;-71
2021/04/28 08:00:27;;;;;;;15.45;7.53;;;;;;;18.02;34.01;99979.03;5088132;28;20036;-71
2021/04/28 08:02:52;;;;;;;12.77;7.65;;;;;;;18.70;33.25;99972.63;5085529;28;20181;-72
2021/04/28 08:05:19;;;;;;;16.20;7.25;;;;;;;19.06;32.29;99974.00;5084415;28;20111;-72
2021/04/28 08:07:44;;;;;;;13.05;8.05;;;;;;;19.37;31.62;99969.53;5086852;28;20043;-71
2021/04/28 08:10:11;;;;;;;12.82;7.38;;;;;;;19.16;33.51;99971.06;5082677;28;20036;-72
2021/04/28 08:12:37;;;;;;;12.77;7.43;;;;;;;18.88;32.86;99971.44;5091925;28;20491;-72
2021/04/28 08:15:03;;;;;;;15.13;7.45;;;;;;;18.58;32.62;99970.22;5090854;28;20088;-72
2021/04/28 08:17:29;;;;;;;14.45;7.45;;;;;;;18.77;32.62;99968.19;5092890;28;20050;-72
2021/04/28 08:19:56;;;;;;;23.45;8.82;;;;;;;19.10;32.34;99975.34;5090962;28;20664;-72
2021/04/28 08:22:22;;;;;;;16.75;7.60;;;;;;;19.47;31.26;99965.78;5092417;28;20032;-72
2021/04/28 08:24:47;;;;;;;17.20;7.70;;;;;;;19.83;31.28;99971.63;5085135;28;20032;-72
2021/04/28 08:27:12;;;;;;;18.02;7.60;;;;;;;20.25;31.47;99976.69;5075372;28;20185;-72
2021/04/28 08:29:38;;;;;;;16.17;7.50;;;;;;;20.38;30.54;99966.94;5087927;28;20069;-72
2021/04/28 08:32:04;;;;;;;14.93;8.50;;;;;;;20.12;30.55;99967.22;5087951;28;20028;-72
2021/04/28 08:34:29;;;;;;;15.48;8.48;;;;;;;19.96;29.39;99969.19;5089780;28;20032;-72
2021/04/28 08:36:55;;;;;;;15.73;8.60;;;;;;;19.76;31.26;99966.88;5070027;28;20032;-72
2021/04/28 08:39:20;;;;;;;12.88;8.40;;;;;;;20.15;29.64;99964.16;5094217;28;20114;-72
2021/04/28 08:41:50;;;;;;;13.60;7.80;;;;;;;19.74;30.20;99958.06;5087153;28;20032;-72
2021/04/28 08:44:16;;;;;;;12.18;7.18;;;;;;;20.13;30.07;99963.47;5088841;28;20070;-72
2021/04/28 08:46:42;;;;;;;14.00;8.05;;;;;;;20.34;30.83;99959.31;5090435;28;20020;-72
2021/04/28 08:49:08;;;;;;;13.75;8.13;;;;;;;20.26;29.33;99967.50;5082035;28;20503;-73
2021/04/28 08:51:35;;;;;;;12.73;8.35;;;;;;;20.63;29.84;99967.63;5093227;28;21089;-72
2021/04/28 08:54:01;;;;;;;18.17;8.52;;;;;;;20.75;29.25;99957.13;5087974;28;20043;-72
2021/04/28 08:56:26;;;;;;;13.63;8.80;;;;;;;20.95;29.28;99956.47;5093467;28;20472;-72
2021/04/28 08:58:53;;;;;;;14.82;7.93;;;;;;;21.06;28.96;99959.78;5085335;28;20040;-72
2021/04/28 09:01:36;;;;;;;18.20;9.02;;;;;;;20.70;28.94;99954.97;5097063;28;20032;-72
2021/04/28 09:04:11;;;;;;;12.75;8.18;;;;;;;21.09;28.84;99951.22;5101030;28;20067;-72
2021/04/28 09:06:37;;;;;;;15.82;7.43;;;;;;;21.13;27.62;99949.81;5095869;28;20103;-72
2021/04/28 09:09:07;;;;;;;20.25;8.27;;;;;;;21.21;28.17;99955.25;5100747;28;20037;-72
2021/04/28 09:11:42;;;;;;;16.00;8.18;;;;;;;21.04;27.46;99943.59;5093902;28;20549;-72
2021/04/28 09:14:21;;;;;;;13.20;7.95;;;;;;;21.24;26.47;99946.66;5095817;28;20043;-73
2021/04/28 09:17:07;;;;;;;13.57;8.10;;;;;;;21.55;27.89;99950.09;5066216;28;20035;-72
2021/04/28 09:20:13;;;;;;;14.77;8.18;;;;;;;21.54;27.69;99945.66;5082007;28;20140;-72
2021/04/28 09:23:12;;;;;;;22.95;9.18;;;;;;;21.66;26.75;99941.41;5085900;28;20036;-72
2021/04/28 09:26:17;;;;;;;20.58;7.97;;;;;;;21.64;26.39;99938.06;5054420;28;20093;-72
2021/04/28 09:29:00;;;;;;;15.05;8.43;;;;;;;21.91;27.08;99941.97;5096421;28;20044;-73
2021/04/28 09:31:27;;;;;;;17.48;9.30;;;;;;;22.01;27.37;99928.06;5078014;28;20023;-73
2021/04/28 09:33:57;;;;;;;15.45;8.68;;;;;;;21.93;26.36;99937.16;5089292;28;20048;-72
2021/04/28 09:36:30;;;;;;;12.43;8.63;;;;;;;21.92;27.78;99934.63;5086161;28;20107;-72
2021/04/28 09:39:05;;;;;;;16.15;8.52;;;;;;;21.85;28.11;99926.34;5080897;28;20591;-73
2021/04/28 09:41:34;;;;;;;33.80;9.40;;;;;;;21.85;27.41;99925.50;5085258;28;20043;-72
2021/04/28 09:44:00;;;;;;;18.08;9.57;;;;;;;21.69;27.57;99924.66;5093449;28;20028;-73
2021/04/28 09:46:26;;;;;;;19.95;9.70;;;;;;;21.54;28.02;99921.06;5073597;28;20052;-73
2021/04/28 09:49:05;;;;;;;14.25;8.95;;;;;;;21.67;28.65;99913.06;5081885;28;20137;-73
2021/04/28 09:51:36;;;;;;;19.27;9.40;;;;;;;21.49;27.55;99917.22;5084662;28;20032;-73
2021/04/28 09:54:13;;;;;;;25.58;9.02;;;;;;;21.64;28.12;99899.81;5086914;28;20170;-73
2021/04/28 09:56:40;;;;;;;17.33;9.15;;;;;;;21.84;29.11;99904.69;5065906;28;20071;-73
2021/04/28 09:59:06;;;;;;;20.10;9.65;;;;;;;21.71;27.86;99908.94;5084617;28;20046;-73
2021/04/28 10:01:40;;;;;;;18.35;9.13;;;;;;;21.82;28.24;99913.06;5085149;28;20032;-73
2021/04/28 10:04:10;;;;;;;19.38;8.90;;;;;;;21.92;27.22;99907.28;5087400;28;20040;-73
2021/04/28 10:06:47;;;;;;;20.83;9.60;;;;;;;22.03;27.46;99904.13;5085291;28;20024;-73
2021/04/28 10:09:25;;;;;;;22.67;8.65;;;;;;;22.16;26.85;99899.63;5087587;28;20427;-73
2021/04/28 10:11:51;;;;;;;17.35;9.15;;;;;;;22.15;28.21;99897.97;5084944;28;20334;-73
2021/04/28 10:14:16;;;;;;;13.65;8.90;;;;;;;22.20;25.89;99900.09;5086861;28;20212;-73
2021/04/28 10:16:44;;;;;;;13.45;8.80;;;;;;;22.19;25.97;99892.94;5081755;28;20032;-73
2021/04/28 10:19:09;;;;;;;17.95;9.13;;;;;;;22.29;25.21;99892.63;5072261;28;20121;-73
2021/04/28 10:21:37;;;;;;;17.48;8.93;;;;;;;22.31;24.33;99891.38;5084219;28;20506;-75
2021/04/28 10:24:04;;;;;;;19.48;8.85;;;;;;;22.34;24.33;99885.50;5095687;28;20039;-73
2021/04/28 10:26:30;;;;;;;11.35;8.13;;;;;;;22.38;25.60;99884.09;5078324;28;20341;-73
2021/04/28 10:28:57;;;;;;;16.10;8.30;;;;;;;22.46;24.32;99888.59;5088699;28;20059;-73
2021/04/28 10:31:23;;;;;;;31.38;9.23;;;;;;;22.08;22.44;99885.25;5083062;28;20032;-74
2021/04/28 10:33:49;;;;;;;11.95;7.75;;;;;;;21.89;22.45;99877.63;5085925;28;20051;-73
2021/04/28 10:36:15;;;;;;;12.90;8.32;;;;;;;22.09;23.96;99881.50;5084240;28;20040;-73
2021/04/28 10:38:40;;;;;;;13.38;8.10;;;;;;;22.37;23.40;99887.88;5082622;28;20387;-73
2021/04/28 10:41:06;;;;;;;17.77;8.68;;;;;;;22.31;22.21;99879.59;5086647;28;20412;-73
2021/04/28 10:43:36;;;;;;;13.07;7.35;;;;;;;22.37;22.57;99868.75;5093297;28;20032;-73
2021/04/28 10:46:22;;;;;;;11.48;7.53;;;;;;;22.35;22.04;99867.22;5087644;28;20020;-74
2021/04/28 10:48:47;;;;;;;14.07;7.90;;;;;;;22.27;22.34;99879.16;5087210;28;20039;-73
2021/04/28 10:51:38;;;;;;;18.15;8.73;;;;;;;22.38;22.30;99875.06;5082398;28;20032;-73
2021/04/28 10:54:27;;;;;;;12.00;6.55;;;;;;;22.54;20.99;99875.63;5081932;28;20123;-73
2021/04/28 10:57:07;;;;;;;12.60;7.53;;;;;;;22.39;22.36;99866.66;5076963;28;20396;-73
2021/04/28 10:59:42;;;;;;;15.30;7.97;;;;;;;22.69;22.65;99863.78;5084482;28;20384;-73
2021/04/28 11:02:09;;;;;;;13.40;7.85;;;;;;;22.71;22.76;99853.50;5085702;28;20077;-73
2021/04/28 11:04:36;;;;;;;15.70;7.97;;;;;;;22.36;22.75;99847.06;5086135;28;20024;-73
2021/04/28 11:07:02;;;;;;;12.50;8.20;;;;;;;22.64;22.17;99847.97;5065816;28;20020;-73
2021/04/28 11:09:28;;;;;;;12.27;7.47;;;;;;;22.78;23.28;99846.19;5094349;28;20126;-73
2021/04/28 11:11:56;;;;;;;16.95;7.85;;;;;;;22.71;22.01;99848.00;5080501;28;20068;-73
2021/04/28 11:14:24;;;;;;;10.32;6.80;;;;;;;22.85;22.35;99841.63;5083073;28;20039;-73
2021/04/28 11:16:53;;;;;;;10.68;6.30;;;;;;;22.93;20.74;99833.25;5079635;28;20102;-74
2021/04/28 11:19:33;;;;;;;10.15;5.82;;;;;;;22.90;21.41;99836.38;5086663;28;20104;-74
2021/04/28 11:22:21;;;;;;;12.10;6.45;;;;;;;22.66;20.02;99842.25;5079024;28;21484;-74
2021/04/28 11:25:12;;;;;;;12.77;7.18;;;;;;;22.33;20.55;99836.53;5081734;28;20034;-73
2021/04/28 11:28:01;;;;;;;12.93;7.10;;;;;;;22.20;20.77;99834.50;5080374;28;20035;-75
2021/04/28 11:30:42;;;;;;;14.65;6.97;;;;;;;22.16;21.33;99838.66;5087309;28;20027;-73
2021/04/28 11:33:28;;;;;;;11.35;6.82;;;;;;;22.41;20.19;99831.75;5089175;28;20816;-75
2021/04/28 11:35:54;;;;;;;10.68;6.82;;;;;;;22.50;21.64;99822.38;5089444;28;20714;-73
2021/04/28 11:38:24;;;;;;;15.10;7.82;;;;;;;22.80;20.66;99816.75;5088663;28;20044;-73
2021/04/28 11:40:54;;;;;;;16.10;6.63;;;;;;;22.99;21.27;99816.03;5084555;28;20036;-74